createdAt,value
2017-12-26T06:05:15.659Z,994.52
2017-12-26T06:05:56.204Z,994.56
2017-12-26T06:06:36.712Z,994.62
2017-12-26T06:07:17.253Z,994.65
2017-12-26T06:07:57.798Z,994.63
2017-12-26T06:08:38.314Z,994.53
2017-12-26T06:09:18.836Z,994.59
2017-12-26T06:09:59.366Z,994.61
2017-12-26T06:10:39.902Z,994.56
2017-12-26T06:11:20.424Z,994.6
2017-12-26T06:12:00.968Z,994.56
2017-12-26T06:12:41.492Z,994.58
2017-12-26T06:13:22.045Z,994.57
2017-12-26T06:14:02.580Z,994.58
2017-12-26T06:14:43.121Z,994.56
2017-12-26T06:15:23.648Z,994.7
2017-12-26T06:16:04.195Z,994.66
2017-12-26T06:16:44.720Z,994.62
2017-12-26T06:17:25.257Z,994.65
2017-12-26T06:18:05.791Z,994.61
2017-12-26T06:18:46.331Z,994.57
2017-12-26T06:19:26.870Z,994.57
2017-12-26T06:20:07.389Z,994.63
2017-12-26T06:20:47.901Z,994.64
2017-12-26T06:21:28.448Z,994.65
2017-12-26T06:22:08.958Z,994.73
2017-12-26T06:22:49.471Z,994.82
2017-12-26T06:23:30.077Z,994.81
2017-12-26T06:24:10.609Z,994.85
2017-12-26T06:24:51.133Z,994.86
2017-12-26T06:25:31.645Z,994.88
2017-12-26T06:26:12.170Z,994.89
2017-12-26T06:26:52.670Z,994.95
2017-12-26T06:27:33.172Z,994.96
2017-12-26T06:28:13.738Z,995.03
2017-12-26T06:28:54.262Z,995.05
2017-12-26T06:29:34.770Z,994.97
2017-12-26T06:30:15.297Z,994.95
2017-12-26T06:30:55.811Z,995.01
2017-12-26T06:31:36.333Z,995.05
2017-12-26T06:32:16.864Z,995.01
2017-12-26T06:32:57.392Z,994.98
2017-12-26T06:33:37.926Z,994.98
2017-12-26T06:34:18.466Z,995.05
2017-12-26T06:34:59.005Z,995.16
2017-12-26T06:35:39.563Z,995.23
2017-12-26T06:36:20.078Z,995.25
2017-12-26T06:37:00.610Z,995.18
2017-12-26T06:37:41.121Z,995.09
2017-12-26T06:38:21.674Z,995.07
2017-12-26T06:39:02.191Z,995.02
2017-12-26T06:39:42.706Z,995.02
2017-12-26T06:40:23.242Z,994.99
2017-12-26T06:41:03.768Z,994.94
2017-12-26T06:41:44.304Z,994.91
2017-12-26T06:42:24.834Z,995.01
2017-12-26T06:43:05.356Z,994.96
2017-12-26T06:43:45.897Z,995.13
2017-12-26T06:44:26.459Z,995.08
2017-12-26T06:45:07.044Z,995.01
2017-12-26T06:45:47.596Z,995.03
2017-12-26T06:46:28.127Z,994.96
2017-12-26T06:47:08.660Z,994.98
2017-12-26T06:47:49.191Z,994.94
2017-12-26T06:48:29.733Z,995.07
2017-12-26T06:49:10.276Z,995.09
2017-12-26T06:49:50.793Z,995.08
2017-12-26T06:50:31.310Z,995.04
2017-12-26T06:51:11.878Z,995.06
2017-12-26T06:51:52.473Z,995.08
2017-12-26T06:52:33.208Z,995.12
2017-12-26T06:53:13.753Z,995.07
2017-12-26T06:53:54.290Z,995.07
2017-12-26T06:54:34.916Z,995.13
2017-12-26T06:55:15.538Z,995.07
2017-12-26T06:55:56.073Z,995.1
2017-12-26T06:56:36.637Z,995.1
2017-12-26T06:57:17.398Z,995.16
2017-12-26T06:57:57.987Z,995.11
2017-12-26T06:58:38.670Z,995.09
2017-12-26T06:59:19.208Z,995.13
2017-12-26T06:59:59.795Z,995.24
2017-12-26T07:00:40.383Z,995.1
2017-12-26T07:01:20.918Z,995.08
2017-12-26T07:02:01.457Z,995.19
2017-12-26T07:02:41.979Z,995.13
2017-12-26T07:03:22.533Z,995.08
2017-12-26T07:04:03.064Z,995.07
2017-12-26T07:04:43.595Z,995.14
2017-12-26T07:05:24.168Z,995.1
2017-12-26T07:06:04.723Z,995.14
2017-12-26T07:06:45.259Z,995.09
2017-12-26T07:07:25.802Z,995.07
2017-12-26T07:08:06.334Z,995.12
2017-12-26T07:08:46.873Z,995.14
2017-12-26T07:09:27.412Z,995.17
2017-12-26T07:10:07.945Z,995.14
2017-12-26T07:10:48.480Z,995.14
2017-12-26T07:11:29.007Z,995.18
2017-12-26T07:12:09.549Z,995.18
2017-12-26T07:12:50.127Z,995.05
2017-12-26T07:13:30.663Z,995.16
2017-12-26T07:14:11.197Z,995.15
2017-12-26T07:14:51.724Z,995.26
2017-12-26T07:15:32.263Z,995.19
2017-12-26T07:16:12.814Z,995.13
2017-12-26T07:16:53.381Z,995.13
2017-12-26T07:17:33.899Z,995.11
2017-12-26T07:18:14.550Z,995.13
2017-12-26T07:18:55.138Z,995.08
2017-12-26T07:19:35.748Z,995.1
2017-12-26T07:20:16.374Z,995.07
2017-12-26T07:20:57.017Z,995.14
2017-12-26T07:21:37.528Z,995.21
2017-12-26T07:22:18.054Z,995.13
2017-12-26T07:22:58.571Z,995.12
2017-12-26T07:23:39.095Z,995.03
2017-12-26T07:24:19.636Z,995.16
2017-12-26T07:25:00.141Z,995.2
2017-12-26T07:25:40.680Z,995.09
2017-12-26T07:26:21.205Z,995.18
2017-12-26T07:27:01.759Z,995.08
2017-12-26T07:27:42.331Z,995.13
2017-12-26T07:28:22.869Z,995.19
2017-12-26T07:29:03.402Z,995.32
2017-12-26T07:29:43.937Z,995.29
2017-12-26T07:30:24.486Z,995.44
2017-12-26T07:31:05.019Z,995.26
2017-12-26T07:31:45.550Z,995.17
2017-12-26T07:32:26.085Z,995.24
2017-12-26T07:33:06.623Z,995.1
2017-12-26T07:33:47.162Z,995.15
2017-12-26T07:34:27.698Z,995.1
2017-12-26T07:35:08.219Z,995.2
2017-12-26T07:35:48.754Z,995.13
2017-12-26T07:36:29.292Z,995.07
2017-12-26T07:37:09.822Z,995.08
2017-12-26T07:37:50.331Z,995.15
2017-12-26T07:38:30.859Z,995.04
2017-12-26T07:39:11.397Z,995.1
2017-12-26T07:39:51.918Z,995.2
2017-12-26T07:40:32.443Z,995.08
2017-12-26T07:41:12.948Z,995.07
2017-12-26T07:41:53.534Z,995.08
2017-12-26T07:42:34.243Z,995.1
2017-12-26T07:43:15.010Z,995.05
2017-12-26T07:43:55.583Z,995.09
2017-12-26T07:44:36.235Z,995.14
2017-12-26T07:45:17.069Z,995.05
2017-12-26T07:45:57.660Z,995.04
2017-12-26T07:46:38.181Z,995.09
2017-12-26T07:47:18.738Z,995.22
2017-12-26T07:47:59.299Z,995.12
2017-12-26T07:48:40.020Z,995.14
2017-12-26T07:49:20.621Z,995.07
2017-12-26T07:50:01.245Z,994.98
2017-12-26T07:50:41.771Z,995.1
2017-12-26T07:51:22.350Z,995.16
2017-12-26T07:52:02.877Z,995.12
2017-12-26T07:52:43.465Z,995.12
2017-12-26T07:53:24.216Z,995.16
2017-12-26T07:54:04.873Z,995.16
2017-12-26T07:54:45.404Z,995.16
2017-12-26T07:55:26.075Z,995.18
2017-12-26T07:56:06.611Z,995.19
2017-12-26T07:56:47.153Z,995.21
2017-12-26T07:57:27.702Z,995.25
2017-12-26T07:58:08.231Z,995.34
2017-12-26T07:58:48.748Z,995.19
2017-12-26T07:59:29.474Z,995.24
2017-12-26T08:00:10.248Z,995.21
2017-12-26T08:00:50.776Z,995.23
2017-12-26T08:01:31.387Z,995.23
2017-12-26T08:02:12.204Z,995.24
2017-12-26T08:02:52.945Z,995.2
2017-12-26T08:03:33.460Z,995.3
2017-12-26T08:04:13.995Z,995.25
2017-12-26T08:04:54.866Z,995.27
2017-12-26T08:05:35.451Z,995.26
2017-12-26T08:06:16.203Z,995.23
2017-12-26T08:06:57.109Z,995.25
2017-12-26T08:07:37.867Z,995.19
2017-12-26T08:08:18.383Z,995.21
2017-12-26T08:08:58.910Z,995.17
2017-12-26T08:09:39.455Z,995.18
2017-12-26T08:10:19.994Z,995.23
2017-12-26T08:11:00.538Z,995.27
2017-12-26T08:11:41.059Z,995.24
2017-12-26T08:12:21.617Z,995.31
2017-12-26T08:13:02.232Z,995.23
2017-12-26T08:13:42.780Z,995.19
2017-12-26T08:14:23.507Z,995.22
2017-12-26T08:15:04.278Z,995.19
2017-12-26T08:15:44.832Z,995.21
2017-12-26T08:16:25.559Z,995.21
2017-12-26T08:17:06.170Z,995.19
2017-12-26T08:17:46.758Z,995.21
2017-12-26T08:18:27.677Z,995.19
2017-12-26T08:19:08.290Z,995.14
2017-12-26T08:19:48.750Z,995.14
2017-12-26T08:20:29.309Z,995.15
2017-12-26T08:21:09.861Z,995.15
2017-12-26T08:21:50.577Z,995.17
2017-12-26T08:22:31.090Z,995.16
2017-12-26T08:23:11.858Z,995.14
2017-12-26T08:23:52.535Z,995.18
2017-12-26T08:24:33.039Z,995.16
2017-12-26T08:25:13.575Z,995.22
2017-12-26T08:25:55.250Z,995.19
2017-12-26T08:26:37.953Z,995.21
2017-12-26T08:27:20.869Z,995.24
2017-12-26T08:28:03.137Z,995.26
2017-12-26T08:28:44.573Z,995.26
2017-12-26T08:29:25.096Z,995.27
2017-12-26T08:30:05.711Z,995.29
2017-12-26T08:30:46.314Z,995.32
2017-12-26T08:31:26.837Z,995.3
2017-12-26T08:32:07.529Z,995.32
2017-12-26T08:32:48.210Z,995.35
2017-12-26T08:33:28.763Z,995.38
2017-12-26T08:34:09.371Z,995.39
2017-12-26T08:34:50.132Z,995.42
2017-12-26T08:35:31.372Z,995.41
2017-12-26T08:36:12.357Z,995.44
2017-12-26T08:36:54.890Z,995.44
2017-12-26T08:37:41.560Z,995.46
2017-12-26T08:38:22.183Z,995.47
2017-12-26T08:39:02.728Z,995.49
2017-12-26T08:39:43.263Z,995.5
2017-12-26T08:40:23.790Z,995.54
2017-12-26T08:41:04.329Z,995.53
2017-12-26T08:41:44.857Z,995.59
2017-12-26T08:42:25.378Z,995.61
2017-12-26T08:43:05.915Z,995.7
2017-12-26T08:43:46.452Z,995.71
2017-12-26T08:44:26.987Z,995.67
2017-12-26T08:45:07.521Z,995.73
2017-12-26T08:45:48.047Z,995.75
2017-12-26T08:46:28.574Z,995.78
2017-12-26T08:47:09.106Z,995.81
2017-12-26T08:47:49.658Z,995.79
2017-12-26T08:48:30.196Z,995.84
2017-12-26T08:49:10.739Z,995.84
2017-12-26T08:49:51.279Z,995.86
2017-12-26T08:50:31.803Z,995.88
2017-12-26T08:51:12.344Z,995.9
2017-12-26T08:51:52.915Z,995.91
2017-12-26T08:52:33.416Z,995.94
2017-12-26T08:53:13.953Z,995.92
2017-12-26T08:53:54.497Z,995.95
2017-12-26T08:54:35.025Z,995.94
2017-12-26T08:55:15.565Z,995.97
2017-12-26T08:55:56.097Z,996.04
2017-12-26T08:56:36.628Z,996.11
2017-12-26T08:57:17.163Z,996.09
2017-12-26T08:57:57.700Z,996.06
2017-12-26T08:58:38.233Z,996.13
2017-12-26T08:59:18.754Z,996.14
2017-12-26T08:59:59.284Z,996.13
2017-12-26T09:00:39.819Z,996.19
2017-12-26T09:01:20.405Z,996.52
2017-12-26T09:02:00.942Z,996.27
2017-12-26T09:02:41.545Z,996.28
2017-12-26T09:03:22.085Z,996.19
2017-12-26T09:04:02.617Z,996.33
2017-12-26T09:04:43.158Z,996.46
2017-12-26T09:05:23.681Z,996.32
2017-12-26T09:06:04.220Z,996.37
2017-12-26T09:06:44.760Z,996.35
2017-12-26T09:07:25.291Z,996.36
2017-12-26T09:08:05.822Z,996.39
2017-12-26T09:08:46.333Z,996.37
2017-12-26T09:09:26.866Z,996.43
2017-12-26T09:10:07.401Z,996.36
2017-12-26T09:10:47.954Z,996.36
2017-12-26T09:11:28.487Z,996.45
2017-12-26T09:12:09.018Z,996.45
2017-12-26T09:12:49.546Z,996.45
2017-12-26T09:13:30.080Z,996.5
2017-12-26T09:14:10.622Z,996.55
2017-12-26T09:14:51.158Z,996.55
2017-12-26T09:15:31.693Z,996.56
2017-12-26T09:16:12.222Z,996.58
2017-12-26T09:16:52.753Z,996.57
2017-12-26T09:17:33.284Z,996.6
2017-12-26T09:18:13.821Z,996.61
2017-12-26T09:18:54.364Z,996.6
2017-12-26T09:19:34.899Z,996.61
2017-12-26T09:20:15.440Z,996.66
2017-12-26T09:20:55.973Z,996.69
2017-12-26T09:21:36.504Z,996.66
2017-12-26T09:22:17.042Z,996.65
2017-12-26T09:22:57.585Z,996.63
2017-12-26T09:23:38.114Z,996.68
2017-12-26T09:24:18.656Z,996.66
2017-12-26T09:24:59.182Z,996.72
2017-12-26T09:25:39.723Z,996.72
2017-12-26T09:26:20.251Z,996.73
2017-12-26T09:27:00.785Z,996.78
2017-12-26T09:27:41.333Z,996.76
2017-12-26T09:28:21.876Z,996.74
2017-12-26T09:29:02.417Z,996.74
2017-12-26T09:29:42.954Z,996.72
2017-12-26T09:30:23.485Z,996.71
2017-12-26T09:31:04.012Z,996.76
2017-12-26T09:31:44.547Z,996.75
2017-12-26T09:32:25.125Z,996.71
2017-12-26T09:33:05.634Z,996.71
2017-12-26T09:33:46.169Z,996.71
2017-12-26T09:34:26.708Z,996.7
2017-12-26T09:35:07.239Z,996.73
2017-12-26T09:35:47.764Z,996.76
2017-12-26T09:36:28.295Z,996.79
2017-12-26T09:37:08.837Z,996.82
2017-12-26T09:37:49.375Z,996.83
2017-12-26T09:38:29.915Z,996.91
2017-12-26T09:39:10.444Z,996.94
2017-12-26T09:39:50.971Z,996.99
2017-12-26T09:40:31.520Z,996.98
2017-12-26T09:41:12.083Z,996.98
2017-12-26T09:41:52.620Z,997.02
2017-12-26T09:42:33.151Z,997.02
2017-12-26T09:43:13.680Z,997.03
2017-12-26T09:43:54.217Z,997.05
2017-12-26T09:44:34.748Z,997.06
2017-12-26T09:45:15.273Z,997.08
2017-12-26T09:45:55.806Z,997.08
2017-12-26T09:46:36.342Z,997.07
2017-12-26T09:47:16.882Z,997.05
2017-12-26T09:47:57.418Z,997
2017-12-26T09:48:37.947Z,996.99
2017-12-26T09:49:18.478Z,996.95
2017-12-26T09:49:59.111Z,996.95
2017-12-26T09:50:39.653Z,996.95
2017-12-26T09:51:20.186Z,996.91
2017-12-26T09:52:00.724Z,996.91
2017-12-26T09:52:41.266Z,996.93
2017-12-26T09:53:21.793Z,996.9
2017-12-26T09:54:02.325Z,996.88
2017-12-26T09:54:42.863Z,996.88
2017-12-26T09:55:23.397Z,996.86
2017-12-26T09:56:03.933Z,996.87
2017-12-26T09:56:44.466Z,996.9
2017-12-26T09:57:25.000Z,996.92
2017-12-26T09:58:05.524Z,996.89
2017-12-26T09:58:46.051Z,996.91
2017-12-26T09:59:26.588Z,996.86
2017-12-26T10:00:07.111Z,996.8
2017-12-26T10:00:47.656Z,996.83
2017-12-26T10:01:28.174Z,996.86
2017-12-26T10:02:08.738Z,996.82
2017-12-26T10:02:49.282Z,996.84
2017-12-26T10:03:29.819Z,996.83
2017-12-26T10:04:10.349Z,996.84
2017-12-26T10:04:50.881Z,996.76
2017-12-26T10:05:31.410Z,996.8
2017-12-26T10:06:11.944Z,996.78
2017-12-26T10:06:52.484Z,996.76
2017-12-26T10:07:33.021Z,996.77
2017-12-26T10:08:13.557Z,996.77
2017-12-26T10:08:54.092Z,996.75
2017-12-26T10:09:34.641Z,996.78
2017-12-26T10:10:15.179Z,996.8
2017-12-26T10:10:55.713Z,996.83
2017-12-26T10:11:36.264Z,996.79
2017-12-26T10:12:16.804Z,996.82
2017-12-26T10:12:57.351Z,996.79
2017-12-26T10:13:37.879Z,996.79
2017-12-26T10:14:18.413Z,996.84
2017-12-26T10:14:58.956Z,996.83
2017-12-26T10:15:39.493Z,996.83
2017-12-26T10:16:20.022Z,996.83
2017-12-26T10:17:00.554Z,996.82
2017-12-26T10:17:41.093Z,996.8
2017-12-26T10:18:21.611Z,996.79
2017-12-26T10:19:02.150Z,996.8
2017-12-26T10:19:42.676Z,996.78
2017-12-26T10:20:23.215Z,996.77
2017-12-26T10:21:03.759Z,996.77
2017-12-26T10:21:44.287Z,996.79
2017-12-26T10:22:24.825Z,996.81
2017-12-26T10:23:05.364Z,996.82
2017-12-26T10:23:45.881Z,996.81
2017-12-26T10:24:26.438Z,996.85
2017-12-26T10:25:06.981Z,996.85
2017-12-26T10:25:47.510Z,996.87
2017-12-26T10:26:28.049Z,996.85
2017-12-26T10:27:08.578Z,996.87
2017-12-26T10:27:49.117Z,996.86
2017-12-26T10:28:29.656Z,996.85
2017-12-26T10:29:10.185Z,996.85
2017-12-26T10:29:50.723Z,996.8
2017-12-26T10:30:31.254Z,996.79
2017-12-26T10:31:11.792Z,996.74
2017-12-26T10:31:52.337Z,996.71
2017-12-26T10:32:32.874Z,996.71
2017-12-26T10:33:13.420Z,996.73
2017-12-26T10:33:53.941Z,996.75
2017-12-26T10:34:34.481Z,996.72
2017-12-26T10:35:15.015Z,996.73
2017-12-26T10:35:55.556Z,996.77
2017-12-26T10:36:36.101Z,996.71
2017-12-26T10:37:16.642Z,996.7
2017-12-26T10:37:57.191Z,996.73
2017-12-26T10:38:37.726Z,996.76
2017-12-26T10:39:18.269Z,996.78
2017-12-26T10:39:58.796Z,996.81
2017-12-26T10:40:39.333Z,996.84
2017-12-26T10:41:19.875Z,996.83
2017-12-26T10:42:00.406Z,996.83
2017-12-26T10:42:40.944Z,996.85
2017-12-26T10:43:21.505Z,996.84
2017-12-26T10:44:02.043Z,996.83
2017-12-26T10:44:42.580Z,996.85
2017-12-26T10:45:23.126Z,996.84
2017-12-26T10:46:03.654Z,996.84
2017-12-26T10:46:44.195Z,996.87
2017-12-26T10:47:24.729Z,996.86
2017-12-26T10:48:05.264Z,996.91
2017-12-26T10:48:45.811Z,996.91
2017-12-26T10:49:26.349Z,996.89
2017-12-26T10:50:06.886Z,996.9
2017-12-26T10:50:47.426Z,996.88
2017-12-26T10:51:27.958Z,996.86
2017-12-26T10:52:08.504Z,996.85
2017-12-26T10:52:49.034Z,996.89
2017-12-26T10:53:29.598Z,996.9
2017-12-26T10:54:10.097Z,996.93
2017-12-26T10:54:50.630Z,996.89
2017-12-26T10:55:31.164Z,996.92
2017-12-26T10:56:11.704Z,996.86
2017-12-26T10:56:52.237Z,996.92
2017-12-26T10:57:32.798Z,996.91
2017-12-26T10:58:13.337Z,996.92
2017-12-26T10:58:53.876Z,996.95
2017-12-26T10:59:34.418Z,996.94
2017-12-26T11:00:14.952Z,996.93
2017-12-26T11:00:55.470Z,996.93
2017-12-26T11:01:36.017Z,996.93
2017-12-26T11:02:16.544Z,996.94
2017-12-26T11:02:57.084Z,996.95
2017-12-26T11:03:37.625Z,996.91
2017-12-26T11:04:18.156Z,996.92
2017-12-26T11:04:58.703Z,996.96
2017-12-26T11:05:39.242Z,996.95
2017-12-26T11:06:19.773Z,996.97
2017-12-26T11:07:00.314Z,997.01
2017-12-26T11:07:40.850Z,997.01
2017-12-26T11:08:21.379Z,996.95
2017-12-26T11:09:01.928Z,996.96
2017-12-26T11:09:42.468Z,997
2017-12-26T11:10:23.009Z,996.96
2017-12-26T11:11:03.547Z,996.97
2017-12-26T11:11:44.093Z,996.95
2017-12-26T11:12:24.624Z,996.94
2017-12-26T11:13:05.152Z,996.95
2017-12-26T11:13:45.695Z,997
2017-12-26T11:14:26.223Z,996.92
2017-12-26T11:15:06.764Z,996.96
2017-12-26T11:15:47.280Z,996.93
2017-12-26T11:16:27.824Z,996.97
2017-12-26T11:17:08.373Z,996.97
2017-12-26T11:17:48.908Z,996.99
2017-12-26T11:18:29.450Z,996.98
2017-12-26T11:19:09.996Z,996.96
2017-12-26T11:19:50.550Z,996.96
2017-12-26T11:20:31.086Z,996.95
2017-12-26T11:21:11.626Z,996.95
2017-12-26T11:21:52.152Z,996.95
2017-12-26T11:22:32.726Z,996.95
2017-12-26T11:23:13.226Z,996.9
2017-12-26T11:23:53.760Z,996.96
2017-12-26T11:24:34.294Z,996.96
2017-12-26T11:25:14.834Z,997.02
2017-12-26T11:25:55.352Z,997
2017-12-26T11:26:35.883Z,996.96
2017-12-26T11:27:16.427Z,997.01
2017-12-26T11:27:57.004Z,997.04
2017-12-26T11:28:37.513Z,997.02
2017-12-26T11:29:18.053Z,997.06
2017-12-26T11:29:58.610Z,997.11
2017-12-26T11:30:39.139Z,997.16
2017-12-26T11:31:19.692Z,997.11
2017-12-26T11:32:00.229Z,997.1
2017-12-26T11:32:40.765Z,997.12
2017-12-26T11:33:21.293Z,997.1
2017-12-26T11:34:01.831Z,997.08
2017-12-26T11:34:42.361Z,997.09
2017-12-26T11:35:22.910Z,997.1
2017-12-26T11:36:03.458Z,997.11
2017-12-26T11:36:43.998Z,997.1
2017-12-26T11:37:24.538Z,997.06
2017-12-26T11:38:05.077Z,997.12
2017-12-26T11:38:45.623Z,997.12
2017-12-26T11:39:26.151Z,997.14
2017-12-26T11:40:06.677Z,997.11
2017-12-26T11:40:47.217Z,997.1
2017-12-26T11:41:27.759Z,997.13
2017-12-26T11:42:08.308Z,997.14
2017-12-26T11:42:48.848Z,997.19
2017-12-26T11:43:29.378Z,997.15
2017-12-26T11:44:09.915Z,997.21
2017-12-26T11:44:50.442Z,997.3
2017-12-26T11:45:30.966Z,997.21
2017-12-26T11:46:11.502Z,997.25
2017-12-26T11:46:52.045Z,997.24
2017-12-26T11:47:32.556Z,997.25
2017-12-26T11:48:13.156Z,997.32
2017-12-26T11:48:53.733Z,997.34
2017-12-26T11:49:34.270Z,997.37
2017-12-26T11:50:14.817Z,997.34
2017-12-26T11:50:55.351Z,997.29
2017-12-26T11:51:35.886Z,997.31
2017-12-26T11:52:16.410Z,997.34
2017-12-26T11:52:56.943Z,997.36
2017-12-26T11:53:37.478Z,997.35
2017-12-26T11:54:18.047Z,997.35
2017-12-26T11:54:58.572Z,997.36
2017-12-26T11:55:39.122Z,997.34
2017-12-26T11:56:19.652Z,997.35
2017-12-26T11:57:00.189Z,997.32
2017-12-26T11:57:40.723Z,997.36
2017-12-26T11:58:21.265Z,997.4
2017-12-26T11:59:01.802Z,997.36
2017-12-26T11:59:42.347Z,997.36
2017-12-26T12:00:22.896Z,997.31
2017-12-26T12:01:03.428Z,997.37
2017-12-26T12:01:43.979Z,997.36
2017-12-26T12:02:24.603Z,997.31
2017-12-26T12:03:05.099Z,997.31
2017-12-26T12:03:45.633Z,997.34
2017-12-26T12:04:26.170Z,997.41
2017-12-26T12:05:06.706Z,997.45
2017-12-26T12:05:47.254Z,997.36
2017-12-26T12:06:27.775Z,997.39
2017-12-26T12:07:08.311Z,997.27
2017-12-26T12:07:48.854Z,997.44
2017-12-26T12:08:29.396Z,997.39
2017-12-26T12:09:09.940Z,997.34
2017-12-26T12:09:50.479Z,997.32
2017-12-26T12:10:31.060Z,997.31
2017-12-26T12:11:11.600Z,997.22
2017-12-26T12:11:52.149Z,997.31
2017-12-26T12:12:32.691Z,997.31
2017-12-26T12:13:13.233Z,997.29
2017-12-26T12:13:53.784Z,997.29
2017-12-26T12:14:34.333Z,997.22
2017-12-26T12:15:14.885Z,997.22
2017-12-26T12:15:55.428Z,997.23
2017-12-26T12:16:35.972Z,997.14
2017-12-26T12:17:16.519Z,997.27
2017-12-26T12:17:57.054Z,997.23
2017-12-26T12:18:37.588Z,997.27
2017-12-26T12:19:18.121Z,997.23
2017-12-26T12:19:58.667Z,997.21
2017-12-26T12:20:39.216Z,997.19
2017-12-26T12:21:19.756Z,997.19
2017-12-26T12:22:00.299Z,997.18
2017-12-26T12:22:40.844Z,997.36
2017-12-26T12:23:21.396Z,997.26
2017-12-26T12:24:01.956Z,997.15
2017-12-26T12:24:42.502Z,997.31
2017-12-26T12:25:23.034Z,997.25
2017-12-26T12:26:03.583Z,997.23
2017-12-26T12:26:44.134Z,997.25
2017-12-26T12:27:24.682Z,997.22
2017-12-26T12:28:05.235Z,997.28
2017-12-26T12:28:45.794Z,997.32
2017-12-26T12:29:26.323Z,997.43
2017-12-26T12:30:06.864Z,997.2
2017-12-26T12:30:47.413Z,997.17
2017-12-26T12:31:27.948Z,997.21
2017-12-26T12:32:08.482Z,997.23
2017-12-26T12:32:49.032Z,997.24
2017-12-26T12:33:29.568Z,997.23
2017-12-26T12:34:10.114Z,997.3
2017-12-26T12:34:50.656Z,997.31
2017-12-26T12:35:31.215Z,997.35
2017-12-26T12:36:11.759Z,997.34
2017-12-26T12:36:52.299Z,997.33
2017-12-26T12:37:32.847Z,997.32
2017-12-26T12:38:13.386Z,997.33
2017-12-26T12:38:53.935Z,997.22
2017-12-26T12:39:34.487Z,997.31
2017-12-26T12:40:15.015Z,997.29
2017-12-26T12:40:55.562Z,997.32
2017-12-26T12:41:36.094Z,997.3
2017-12-26T12:42:16.644Z,997.28
2017-12-26T12:42:57.183Z,997.42
2017-12-26T12:43:37.724Z,997.25
2017-12-26T12:44:18.268Z,997.3
2017-12-26T12:44:58.811Z,997.32
2017-12-26T12:45:39.354Z,997.29
2017-12-26T12:46:19.894Z,997.25
2017-12-26T12:47:00.433Z,997.23
2017-12-26T12:47:40.974Z,997.2
2017-12-26T12:48:21.501Z,997.24
2017-12-26T12:49:02.048Z,997.26
2017-12-26T12:49:42.591Z,997.16
2017-12-26T12:50:23.129Z,997.27
2017-12-26T12:51:03.668Z,997.21
2017-12-26T12:51:44.220Z,997.38
2017-12-26T12:52:24.764Z,997.19
2017-12-26T12:53:05.310Z,997.2
2017-12-26T12:53:45.846Z,997.18
2017-12-26T12:54:26.374Z,997.21
2017-12-26T12:55:06.930Z,997.22
2017-12-26T12:55:47.447Z,997.23
2017-12-26T12:56:27.991Z,997.25
2017-12-26T12:57:08.539Z,997.18
2017-12-26T12:57:49.137Z,997.23
2017-12-26T12:58:29.643Z,997.3
2017-12-26T12:59:10.189Z,997.22
2017-12-26T12:59:50.732Z,997.25
2017-12-26T13:00:31.265Z,997.31
2017-12-26T13:01:11.807Z,997.31
2017-12-26T13:01:52.351Z,997.36
2017-12-26T13:02:32.903Z,997.31
2017-12-26T13:03:13.437Z,997.29
2017-12-26T13:03:53.993Z,997.26
2017-12-26T13:04:34.539Z,997.3
2017-12-26T13:05:15.080Z,997.26
2017-12-26T13:05:55.624Z,997.21
2017-12-26T13:06:36.158Z,997.21
2017-12-26T13:07:16.705Z,997.26
2017-12-26T13:07:57.249Z,997.23
2017-12-26T13:08:37.783Z,997.24
2017-12-26T13:09:18.324Z,997.24
2017-12-26T13:09:58.871Z,997.23
2017-12-26T13:10:39.416Z,997.19
2017-12-26T13:11:19.968Z,997.28
2017-12-26T13:12:00.497Z,997.17
2017-12-26T13:12:41.043Z,997.16
2017-12-26T13:13:21.576Z,997.15
2017-12-26T13:14:02.125Z,997.19
2017-12-26T13:14:42.661Z,997.12
2017-12-26T13:15:23.206Z,997.18
2017-12-26T13:16:03.760Z,997.14
2017-12-26T13:16:44.306Z,997.15
2017-12-26T13:17:24.846Z,997.12
2017-12-26T13:18:05.411Z,997.1
2017-12-26T13:18:45.952Z,997.12
2017-12-26T13:19:26.500Z,997.11
2017-12-26T13:20:07.050Z,997.15
2017-12-26T13:20:47.593Z,997.23
2017-12-26T13:21:28.141Z,997.18
2017-12-26T13:22:08.684Z,997.22
2017-12-26T13:22:49.231Z,997.16
2017-12-26T13:23:29.773Z,997.15
2017-12-26T13:24:10.311Z,997.19
2017-12-26T13:24:50.856Z,997.2
2017-12-26T13:25:31.385Z,997.24
2017-12-26T13:26:11.925Z,997.14
2017-12-26T13:26:52.467Z,997.16
2017-12-26T13:27:33.010Z,997.12
2017-12-26T13:28:13.545Z,997.21
2017-12-26T13:28:54.103Z,997.21
2017-12-26T13:29:34.651Z,997.18
2017-12-26T13:30:15.188Z,997.2
2017-12-26T13:30:55.731Z,997.28
2017-12-26T13:31:36.271Z,997.25
2017-12-26T13:32:16.821Z,997.31
2017-12-26T13:32:57.350Z,997.3
2017-12-26T13:33:37.888Z,997.26
2017-12-26T13:34:18.431Z,997.23
2017-12-26T13:34:58.971Z,997.3
2017-12-26T13:35:39.511Z,997.27
2017-12-26T13:36:20.056Z,997.32
2017-12-26T13:37:00.599Z,997.34
2017-12-26T13:37:41.117Z,997.19
2017-12-26T13:38:21.653Z,997.19
2017-12-26T13:39:02.194Z,997.16
2017-12-26T13:39:42.733Z,997.17
2017-12-26T13:40:23.272Z,997.18
2017-12-26T13:41:03.816Z,997.16
2017-12-26T13:41:44.345Z,997.14
2017-12-26T13:42:24.881Z,997.09
2017-12-26T13:43:05.408Z,997.14
2017-12-26T13:43:45.950Z,997.13
2017-12-26T13:44:26.479Z,997.24
2017-12-26T13:45:07.011Z,997.1
2017-12-26T13:45:47.561Z,997.14
2017-12-26T13:46:28.113Z,997.15
2017-12-26T13:47:08.650Z,997.25
2017-12-26T13:47:49.188Z,997.2
2017-12-26T13:48:29.732Z,997.2
2017-12-26T13:49:10.263Z,997.18
2017-12-26T13:49:50.813Z,997.17
2017-12-26T13:50:31.344Z,997.22
2017-12-26T13:51:11.880Z,997.23
2017-12-26T13:51:52.429Z,997.21
2017-12-26T13:52:32.969Z,997.21
2017-12-26T13:53:13.493Z,997.21
2017-12-26T13:53:54.033Z,997.19
2017-12-26T13:54:34.563Z,997.18
2017-12-26T13:55:15.103Z,997.11
2017-12-26T13:55:55.644Z,997.13
2017-12-26T13:56:36.180Z,997.12
2017-12-26T13:57:16.733Z,997.13
2017-12-26T13:57:57.267Z,997.15
2017-12-26T13:58:37.806Z,997.12
2017-12-26T13:59:18.336Z,997.12
2017-12-26T13:59:58.868Z,997.06
2017-12-26T14:00:39.403Z,997.12
2017-12-26T14:01:19.941Z,997.09
2017-12-26T14:02:00.494Z,997.07
2017-12-26T14:02:41.027Z,997.08
2017-12-26T14:03:21.581Z,997.16
2017-12-26T14:04:02.132Z,997.12
2017-12-26T14:04:42.668Z,997.01
2017-12-26T14:05:23.205Z,997.1
2017-12-26T14:06:03.732Z,997.04
2017-12-26T14:06:44.275Z,997.1
2017-12-26T14:07:24.806Z,997.12
2017-12-26T14:08:05.345Z,997.2
2017-12-26T14:08:45.888Z,997.15
2017-12-26T14:09:26.439Z,997.1
2017-12-26T14:10:06.989Z,997.14
2017-12-26T14:10:47.526Z,997.16
2017-12-26T14:11:28.053Z,997.23
2017-12-26T14:12:08.606Z,997.1
2017-12-26T14:12:49.179Z,997.14
2017-12-26T14:13:29.712Z,997.14
2017-12-26T14:14:10.248Z,997.21
2017-12-26T14:14:50.766Z,997.15
2017-12-26T14:15:31.302Z,997.14
2017-12-26T14:16:11.833Z,997.2
2017-12-26T14:16:52.371Z,997.27
2017-12-26T14:17:32.905Z,997.18
2017-12-26T14:18:13.435Z,997.12
2017-12-26T14:18:53.966Z,997.13
2017-12-26T14:19:34.506Z,997.18
2017-12-26T14:20:15.041Z,997.26
2017-12-26T14:20:55.588Z,997.18
2017-12-26T14:21:36.123Z,997.14
2017-12-26T14:22:16.646Z,997.23
2017-12-26T14:22:57.189Z,997.19
2017-12-26T14:23:37.722Z,997.23
2017-12-26T14:24:18.272Z,997.36
2017-12-26T14:24:58.814Z,997.2
2017-12-26T14:25:39.349Z,997.24
2017-12-26T14:26:19.883Z,997.25
2017-12-26T14:27:00.408Z,997.28
2017-12-26T14:27:40.933Z,997.3
2017-12-26T14:28:21.482Z,997.23
2017-12-26T14:29:02.022Z,997.28
2017-12-26T14:29:42.564Z,997.27
2017-12-26T14:30:23.097Z,997.35
2017-12-26T14:31:03.635Z,997.34
2017-12-26T14:31:44.180Z,997.3
2017-12-26T14:32:24.713Z,997.24
2017-12-26T14:33:05.248Z,997.24